createdAt,value
2019-03-15T00:01:23.469Z,6.50
2019-03-15T00:03:56.460Z,6.60
2019-03-15T00:06:29.349Z,6.60
2019-03-15T00:09:02.378Z,6.60
2019-03-15T00:11:35.684Z,6.60
2019-03-15T00:14:08.459Z,6.70
2019-03-15T00:16:42.703Z,6.70
2019-03-15T00:19:15.626Z,6.80
2019-03-15T00:21:48.665Z,6.80
2019-03-15T00:24:22.676Z,6.80
2019-03-15T00:26:56.472Z,6.80
2019-03-15T00:29:29.464Z,6.90
2019-03-15T00:32:02.504Z,7.00
2019-03-15T00:34:35.765Z,7.10
2019-03-15T00:37:08.925Z,7.10
2019-03-15T00:39:41.839Z,7.20
2019-03-15T00:42:15.116Z,7.10
2019-03-15T00:44:48.161Z,7.20
2019-03-15T00:47:21.115Z,7.20
2019-03-15T00:49:54.252Z,7.20
2019-03-15T00:52:27.030Z,7.20
2019-03-15T00:55:00.023Z,7.20
2019-03-15T00:57:32.865Z,7.30
2019-03-15T01:00:07.635Z,7.30
2019-03-15T01:02:43.977Z,7.20
2019-03-15T01:05:16.779Z,7.40
2019-03-15T01:07:49.936Z,7.40
2019-03-15T01:10:23.170Z,7.30
2019-03-15T01:12:57.100Z,7.20
2019-03-15T01:15:29.951Z,7.20
2019-03-15T01:18:02.825Z,7.30
2019-03-15T01:20:35.823Z,7.20
2019-03-15T01:23:08.821Z,7.20
2019-03-15T01:25:42.113Z,7.30
2019-03-15T01:28:15.041Z,7.30
2019-03-15T01:30:48.131Z,7.30
2019-03-15T01:33:21.116Z,7.30
2019-03-15T01:35:53.920Z,7.40
2019-03-15T01:38:26.818Z,7.30
2019-03-15T01:41:00.056Z,7.40
2019-03-15T01:43:33.211Z,7.40
2019-03-15T01:46:06.027Z,7.40
2019-03-15T01:48:39.091Z,7.50
2019-03-15T01:51:12.048Z,7.50
2019-03-15T01:53:45.130Z,7.50
2019-03-15T01:56:18.168Z,7.50
2019-03-15T01:58:50.941Z,7.40
2019-03-15T02:01:23.848Z,7.40
2019-03-15T02:03:56.942Z,7.30
2019-03-15T02:06:29.921Z,7.30
2019-03-15T02:09:04.151Z,7.20
2019-03-15T02:11:37.356Z,7.30
2019-03-15T02:14:10.452Z,7.30
2019-03-15T02:16:43.442Z,7.30
2019-03-15T02:19:16.346Z,7.30
2019-03-15T02:21:49.278Z,7.30
2019-03-15T02:24:22.271Z,7.20
2019-03-15T02:26:55.568Z,7.20
2019-03-15T02:29:28.732Z,7.30
2019-03-15T02:32:01.651Z,7.30
2019-03-15T02:34:34.655Z,7.20
2019-03-15T02:37:07.443Z,7.20
2019-03-15T02:39:40.390Z,7.20
2019-03-15T02:42:13.424Z,7.20
2019-03-15T02:44:46.481Z,7.10
2019-03-15T02:47:19.871Z,7.10
2019-03-15T02:49:54.011Z,7.20
2019-03-15T02:52:26.889Z,7.20
2019-03-15T02:54:59.822Z,7.20
2019-03-15T02:57:32.573Z,7.20
2019-03-15T03:00:06.002Z,7.20
2019-03-15T03:02:39.034Z,7.20
2019-03-15T03:05:12.121Z,7.20
2019-03-15T03:07:44.948Z,7.20
2019-03-15T03:10:18.143Z,7.20
2019-03-15T03:12:51.098Z,7.20
2019-03-15T03:15:25.065Z,7.20
2019-03-15T03:17:58.274Z,7.20
2019-03-15T03:20:31.018Z,7.30
2019-03-15T03:23:04.086Z,7.30
2019-03-15T03:25:37.245Z,7.20
2019-03-15T03:28:10.215Z,7.20
2019-03-15T03:30:45.807Z,7.20
2019-03-15T03:33:17.848Z,7.20
2019-03-15T03:35:50.970Z,7.20
2019-03-15T03:38:23.960Z,7.20
2019-03-15T03:40:57.143Z,7.20
2019-03-15T03:43:30.233Z,7.20
2019-03-15T03:46:03.378Z,7.30
2019-03-15T03:48:36.563Z,7.30
2019-03-15T03:51:09.817Z,7.20
2019-03-15T03:53:42.862Z,7.20
2019-03-15T03:56:15.882Z,7.10
2019-03-15T03:58:48.673Z,7.10
2019-03-15T04:01:21.385Z,7.10
2019-03-15T04:03:54.514Z,7.10
2019-03-15T04:06:27.438Z,7.10
2019-03-15T04:09:00.232Z,7.10
2019-03-15T04:11:33.007Z,7.20
2019-03-15T04:14:06.118Z,7.20
2019-03-15T04:16:38.874Z,7.20
2019-03-15T04:19:11.748Z,7.10
2019-03-15T04:21:45.637Z,7.10
2019-03-15T04:24:18.524Z,7.10
2019-03-15T04:26:51.430Z,7.10
2019-03-15T04:29:24.302Z,7.10
2019-03-15T04:31:57.203Z,7.20
2019-03-15T04:34:30.053Z,7.20
2019-03-15T04:37:03.106Z,7.20
2019-03-15T04:39:36.064Z,7.20
2019-03-15T04:42:09.161Z,7.20
2019-03-15T04:44:42.079Z,7.30
2019-03-15T04:47:15.103Z,7.30
2019-03-15T04:49:47.959Z,7.40
2019-03-15T04:52:20.806Z,7.30
2019-03-15T04:54:53.749Z,7.30
2019-03-15T04:57:26.634Z,7.30
2019-03-15T04:59:59.443Z,7.30
2019-03-15T05:02:32.306Z,7.30
2019-03-15T05:05:05.354Z,7.20
2019-03-15T05:07:38.339Z,7.20
2019-03-15T05:10:11.441Z,7.10
2019-03-15T05:12:44.257Z,7.10
2019-03-15T05:15:17.425Z,7.00
2019-03-15T05:17:50.159Z,7.00
2019-03-15T05:20:23.220Z,7.00
2019-03-15T05:22:56.390Z,7.00
2019-03-15T05:25:29.995Z,7.00
2019-03-15T05:28:03.301Z,6.90
2019-03-15T05:30:40.025Z,6.90
2019-03-15T05:33:12.984Z,6.90
2019-03-15T05:35:46.198Z,6.90
2019-03-15T05:38:19.026Z,6.90
2019-03-15T05:40:54.168Z,6.90
2019-03-15T05:43:29.104Z,6.90
2019-03-15T05:46:02.244Z,6.90
2019-03-15T05:48:35.144Z,6.80
2019-03-15T05:51:08.151Z,6.90
2019-03-15T05:53:41.339Z,6.90
2019-03-15T05:56:14.472Z,6.90
2019-03-15T05:58:47.630Z,6.90
2019-03-15T06:01:21.155Z,6.90
2019-03-15T06:03:54.094Z,6.80
2019-03-15T06:06:27.050Z,6.80
2019-03-15T06:08:59.977Z,6.80
2019-03-15T06:11:33.705Z,6.90
2019-03-15T06:14:06.617Z,6.80
2019-03-15T06:16:39.487Z,6.80
2019-03-15T06:19:12.750Z,6.80
2019-03-15T06:21:45.686Z,6.80
2019-03-15T06:24:18.622Z,6.90
2019-03-15T06:26:51.505Z,6.80
2019-03-15T06:29:24.375Z,6.90
2019-03-15T06:31:57.344Z,6.90
2019-03-15T06:34:30.377Z,6.90
2019-03-15T06:37:03.423Z,6.90
2019-03-15T06:39:36.994Z,6.90
2019-03-15T06:42:09.855Z,6.80
2019-03-15T06:44:42.873Z,6.80
2019-03-15T06:47:15.896Z,6.80
2019-03-15T06:49:49.033Z,6.80
2019-03-15T06:52:22.070Z,6.80
2019-03-15T06:54:55.317Z,6.80
2019-03-15T06:57:28.177Z,6.80
2019-03-15T07:00:01.181Z,6.80
2019-03-15T07:02:34.301Z,6.80
2019-03-15T07:05:07.416Z,6.80
2019-03-15T07:07:40.212Z,6.80
2019-03-15T07:10:13.316Z,6.90
2019-03-15T07:12:46.470Z,6.90
2019-03-15T07:15:19.850Z,6.90
2019-03-15T07:17:52.626Z,6.80
2019-03-15T07:20:25.621Z,6.90
2019-03-15T07:22:58.343Z,6.80
2019-03-15T07:25:31.273Z,6.90
2019-03-15T07:28:04.291Z,6.90
2019-03-15T07:30:37.488Z,6.90
2019-03-15T07:33:10.469Z,6.80
2019-03-15T07:35:43.557Z,6.90
2019-03-15T07:38:16.555Z,6.90
2019-03-15T07:40:49.530Z,6.90
2019-03-15T07:43:22.566Z,6.90
2019-03-15T07:45:55.870Z,7.00
2019-03-15T07:48:28.969Z,7.00
2019-03-15T07:51:02.128Z,7.00
2019-03-15T07:53:35.715Z,7.10
2019-03-15T07:56:08.793Z,7.10
2019-03-15T07:58:41.970Z,7.10
2019-03-15T08:01:15.023Z,7.00
2019-03-15T08:03:47.964Z,7.10
2019-03-15T08:06:33.818Z,7.10
2019-03-15T08:08:56.077Z,7.00
2019-03-15T08:11:29.293Z,7.00
2019-03-15T08:14:02.332Z,7.10
2019-03-15T08:16:36.327Z,7.00
2019-03-15T08:19:23.387Z,7.00
2019-03-15T08:21:56.677Z,7.00
2019-03-15T08:24:29.658Z,7.10
2019-03-15T08:27:02.442Z,7.10
2019-03-15T08:29:35.354Z,7.10
2019-03-15T08:32:08.262Z,7.20
2019-03-15T08:34:41.086Z,7.20
2019-03-15T08:37:13.907Z,7.20
2019-03-15T08:39:46.856Z,7.20
2019-03-15T08:42:19.763Z,7.20
2019-03-15T08:44:52.791Z,7.30
2019-03-15T08:47:25.841Z,7.30
2019-03-15T08:49:58.968Z,7.30
2019-03-15T08:52:32.172Z,7.40
2019-03-15T08:55:06.038Z,7.40
2019-03-15T08:57:38.921Z,7.50
2019-03-15T09:00:11.881Z,7.50
2019-03-15T09:02:45.746Z,7.50
2019-03-15T09:05:18.703Z,7.50
2019-03-15T09:07:51.526Z,7.50
2019-03-15T09:10:24.436Z,7.50
2019-03-15T09:12:57.424Z,7.60
2019-03-15T09:15:30.998Z,7.70
2019-03-15T09:18:03.858Z,7.70
2019-03-15T09:20:37.274Z,7.80
2019-03-15T09:23:11.114Z,7.80
2019-03-15T09:25:44.261Z,7.90
2019-03-15T09:28:17.288Z,8.00
2019-03-15T09:30:50.083Z,8.10
2019-03-15T09:33:23.258Z,8.20
2019-03-15T09:35:56.223Z,8.30
2019-03-15T09:38:29.286Z,8.40
2019-03-15T09:41:02.127Z,8.50
2019-03-15T09:43:35.059Z,8.70
2019-03-15T09:46:07.962Z,8.80
2019-03-15T09:48:43.625Z,8.90
2019-03-15T09:51:16.184Z,9.00
2019-03-15T09:53:48.999Z,9.10
2019-03-15T09:56:21.962Z,9.30
2019-03-15T09:58:54.838Z,9.40
2019-03-15T10:01:34.793Z,9.60
2019-03-15T10:04:02.667Z,9.80
2019-03-15T10:06:35.558Z,10.00
2019-03-15T10:09:08.459Z,10.20
2019-03-15T10:11:41.315Z,10.30
2019-03-15T10:14:14.152Z,10.40
2019-03-15T10:16:47.102Z,10.40
2019-03-15T10:19:19.969Z,10.40
2019-03-15T10:21:52.892Z,10.50
2019-03-15T10:24:25.858Z,10.60
2019-03-15T10:26:58.711Z,10.60
2019-03-15T10:29:31.514Z,10.60
2019-03-15T10:32:04.350Z,10.70
2019-03-15T10:34:37.235Z,10.70
2019-03-15T10:37:10.105Z,10.60
2019-03-15T10:39:43.013Z,10.70
2019-03-15T10:42:16.039Z,10.70
2019-03-15T10:44:48.923Z,10.80
2019-03-15T10:47:21.924Z,10.70
2019-03-15T10:49:54.764Z,10.80
2019-03-15T10:52:27.508Z,10.80
2019-03-15T10:55:00.429Z,10.80
2019-03-15T10:57:33.300Z,10.80
2019-03-15T11:00:07.846Z,10.90
2019-03-15T11:02:40.826Z,10.90
2019-03-15T11:05:14.031Z,11.00
2019-03-15T11:07:47.075Z,11.00
2019-03-15T11:10:20.035Z,11.00
2019-03-15T11:12:52.970Z,10.90
2019-03-15T11:15:25.735Z,11.00
2019-03-15T11:17:58.555Z,11.00
2019-03-15T11:20:31.486Z,11.00
2019-03-15T11:23:04.641Z,10.90
2019-03-15T11:25:37.809Z,10.90
2019-03-15T11:28:11.634Z,10.90
2019-03-15T11:30:44.704Z,10.90
2019-03-15T11:33:17.812Z,10.90
2019-03-15T11:35:50.672Z,10.90
2019-03-15T11:38:23.644Z,10.90
2019-03-15T11:40:56.670Z,10.90
2019-03-15T11:43:29.493Z,11.00
2019-03-15T11:46:02.689Z,11.10
2019-03-15T11:48:35.753Z,11.10
2019-03-15T11:51:08.921Z,11.10
2019-03-15T11:53:42.101Z,11.20
2019-03-15T11:56:26.530Z,11.20
2019-03-15T11:58:49.779Z,11.20
2019-03-15T12:01:22.714Z,11.20
2019-03-15T12:03:55.647Z,11.30
2019-03-15T12:06:28.597Z,11.30
2019-03-15T12:09:01.825Z,11.30
2019-03-15T12:11:35.076Z,11.30
2019-03-15T12:14:08.146Z,11.30
2019-03-15T12:16:40.979Z,11.40
2019-03-15T12:19:14.259Z,11.40
2019-03-15T12:21:47.291Z,11.40
2019-03-15T12:24:20.366Z,11.50
2019-03-15T12:26:53.347Z,11.50
2019-03-15T12:29:26.711Z,11.50
2019-03-15T12:31:59.666Z,11.50
2019-03-15T12:34:34.136Z,11.40
2019-03-15T12:37:07.113Z,11.50
2019-03-15T12:39:40.051Z,11.50
2019-03-15T12:42:13.240Z,11.60
2019-03-15T12:44:46.291Z,11.60
2019-03-15T12:47:19.390Z,11.60
2019-03-15T12:49:52.326Z,11.60
2019-03-15T12:52:25.372Z,11.60
2019-03-15T12:54:58.153Z,11.60
2019-03-15T12:57:31.005Z,11.60
2019-03-15T13:00:05.104Z,11.70
2019-03-15T13:02:38.129Z,11.70
2019-03-15T13:05:11.445Z,11.70
2019-03-15T13:07:44.582Z,11.70
2019-03-15T13:10:17.463Z,11.80
2019-03-15T13:12:50.325Z,11.80
2019-03-15T13:15:23.748Z,11.80
2019-03-15T13:17:56.698Z,11.80
2019-03-15T13:20:29.588Z,11.80
2019-03-15T13:23:02.720Z,11.80
2019-03-15T13:25:35.647Z,11.70
2019-03-15T13:28:08.667Z,11.60
2019-03-15T13:30:41.827Z,11.60
2019-03-15T13:33:20.491Z,11.60
2019-03-15T13:35:49.897Z,11.70
2019-03-15T13:38:22.795Z,11.70
2019-03-15T13:40:56.028Z,11.70
2019-03-15T13:43:28.863Z,11.80
2019-03-15T13:46:01.802Z,11.80
2019-03-15T13:48:34.785Z,11.80
2019-03-15T13:51:07.745Z,11.80
2019-03-15T13:53:41.158Z,11.70
2019-03-15T13:56:14.126Z,11.60
2019-03-15T13:58:56.710Z,11.60
2019-03-15T14:01:21.973Z,11.70
2019-03-15T14:03:55.046Z,11.70
2019-03-15T14:06:27.903Z,11.70
2019-03-15T14:09:00.977Z,11.80
2019-03-15T14:11:33.722Z,11.80
2019-03-15T14:14:06.818Z,11.90
2019-03-15T14:16:40.267Z,11.80
2019-03-15T14:19:13.152Z,11.80
2019-03-15T14:21:48.624Z,11.90
2019-03-15T14:24:22.845Z,11.80
2019-03-15T14:26:56.070Z,12.00
2019-03-15T14:29:28.946Z,12.00
2019-03-15T14:32:01.887Z,12.00
2019-03-15T14:34:34.692Z,12.20
2019-03-15T14:37:10.222Z,12.20
2019-03-15T14:39:42.514Z,12.20
2019-03-15T14:42:16.980Z,12.20
2019-03-15T14:44:50.087Z,12.20
2019-03-15T14:47:24.806Z,12.20
2019-03-15T14:49:58.034Z,12.20
2019-03-15T14:52:31.198Z,12.20
2019-03-15T14:55:04.542Z,12.20
2019-03-15T14:57:50.588Z,12.30
2019-03-15T15:00:12.609Z,12.20
2019-03-15T15:02:45.654Z,12.30
2019-03-15T15:05:19.636Z,12.30
2019-03-15T15:07:55.744Z,12.40
2019-03-15T15:10:28.929Z,12.40
2019-03-15T15:13:02.019Z,12.40
2019-03-15T15:15:34.907Z,12.30
2019-03-15T15:18:07.909Z,12.30
2019-03-15T15:20:40.643Z,12.40
2019-03-15T15:23:13.738Z,12.40
2019-03-15T15:25:46.934Z,12.30
2019-03-15T15:28:20.124Z,12.30
2019-03-15T15:30:53.222Z,12.20
2019-03-15T15:33:26.009Z,12.10
2019-03-15T15:36:07.293Z,12.00
2019-03-15T15:38:40.282Z,11.90
2019-03-15T15:41:13.548Z,11.80
2019-03-15T15:43:46.513Z,11.80
2019-03-15T15:46:19.628Z,11.70
2019-03-15T15:48:52.537Z,11.70
2019-03-15T15:51:25.331Z,11.60
2019-03-15T15:53:58.374Z,11.50
2019-03-15T15:56:31.283Z,11.60
2019-03-15T15:59:04.213Z,11.60
2019-03-15T16:01:37.199Z,11.60
2019-03-15T16:04:10.222Z,11.60
2019-03-15T16:07:02.579Z,11.60
2019-03-15T16:09:35.458Z,11.60
2019-03-15T16:12:08.435Z,11.50
2019-03-15T16:14:41.679Z,11.50
2019-03-15T16:17:14.556Z,11.40
2019-03-15T16:19:47.584Z,11.40
2019-03-15T16:22:20.743Z,11.40
2019-03-15T16:24:53.760Z,11.50
2019-03-15T16:27:26.735Z,11.50
2019-03-15T16:30:00.387Z,11.50
2019-03-15T16:32:33.435Z,11.50
2019-03-15T16:35:08.410Z,11.60
2019-03-15T16:37:41.336Z,11.60
2019-03-15T16:40:14.478Z,11.60
2019-03-15T16:42:47.350Z,11.50
2019-03-15T16:45:22.708Z,11.70
2019-03-15T16:47:55.862Z,11.60
2019-03-15T16:50:28.922Z,11.60
2019-03-15T16:53:01.779Z,11.70
2019-03-15T16:55:35.295Z,11.70
2019-03-15T16:58:08.462Z,11.70
2019-03-15T17:00:41.591Z,11.70
2019-03-15T17:03:14.859Z,11.60
2019-03-15T17:05:48.282Z,11.60
2019-03-15T17:08:21.471Z,11.60
2019-03-15T17:10:54.486Z,11.70
2019-03-15T17:13:27.443Z,11.60
2019-03-15T17:16:00.598Z,11.60
2019-03-15T17:18:33.791Z,11.50
2019-03-15T17:21:07.510Z,11.50
2019-03-15T17:23:41.377Z,11.40
2019-03-15T17:26:14.275Z,11.40
2019-03-15T17:28:57.962Z,11.40
2019-03-15T17:31:23.354Z,11.30
2019-03-15T17:33:56.425Z,11.40
2019-03-15T17:36:29.499Z,11.40
2019-03-15T17:39:03.964Z,11.30
2019-03-15T17:41:37.095Z,11.30
2019-03-15T17:44:10.111Z,11.30
2019-03-15T17:46:43.351Z,11.40
2019-03-15T17:49:16.534Z,11.30
2019-03-15T17:51:49.570Z,11.20
2019-03-15T17:54:22.726Z,11.20
2019-03-15T17:56:55.795Z,11.30
2019-03-15T17:59:29.011Z,11.30
2019-03-15T18:02:01.969Z,11.30
2019-03-15T18:04:34.887Z,11.30
2019-03-15T18:07:07.834Z,11.30
2019-03-15T18:09:41.089Z,11.30
2019-03-15T18:12:14.076Z,11.20
2019-03-15T18:14:46.871Z,11.20
2019-03-15T18:17:19.859Z,11.10
2019-03-15T18:19:52.855Z,11.00
2019-03-15T18:22:25.997Z,11.00
2019-03-15T18:24:58.908Z,11.00
2019-03-15T18:27:31.834Z,11.00
2019-03-15T18:30:05.294Z,10.90
2019-03-15T18:32:38.447Z,10.90
2019-03-15T18:35:11.734Z,11.00
2019-03-15T18:37:44.568Z,11.00
2019-03-15T18:40:17.455Z,10.90
2019-03-15T18:42:50.511Z,10.80
2019-03-15T18:45:23.360Z,10.70
2019-03-15T18:47:56.309Z,10.50
2019-03-15T18:50:30.571Z,10.40
2019-03-15T18:53:03.545Z,10.40
2019-03-15T18:55:36.615Z,10.40
2019-03-15T18:58:09.697Z,10.40
2019-03-15T19:00:42.627Z,10.40
2019-03-15T19:03:15.758Z,10.40
2019-03-15T19:05:49.076Z,10.30
2019-03-15T19:08:22.167Z,10.30
2019-03-15T19:10:55.369Z,10.20
2019-03-15T19:13:28.461Z,10.20
2019-03-15T19:16:01.567Z,10.20
2019-03-15T19:18:34.399Z,10.10
2019-03-15T19:21:08.102Z,10.10
2019-03-15T19:23:41.079Z,10.10
2019-03-15T19:26:14.029Z,10.20
2019-03-15T19:28:47.058Z,10.20
2019-03-15T19:31:20.181Z,10.20
2019-03-15T19:33:53.123Z,10.20
2019-03-15T19:36:25.897Z,10.30
2019-03-15T19:38:59.297Z,10.20
2019-03-15T19:41:32.132Z,10.20
2019-03-15T19:44:05.267Z,10.20
2019-03-15T19:46:38.163Z,10.20
2019-03-15T19:49:11.190Z,10.20
2019-03-15T19:51:44.373Z,10.00
2019-03-15T19:54:17.573Z,9.50
2019-03-15T19:56:50.565Z,9.00
2019-03-15T19:59:23.535Z,8.70
2019-03-15T20:01:56.416Z,8.60
2019-03-15T20:04:29.457Z,8.50
2019-03-15T20:07:02.373Z,8.40
2019-03-15T20:09:35.704Z,8.30
2019-03-15T20:12:09.081Z,8.30
2019-03-15T20:14:42.028Z,8.30
2019-03-15T20:17:15.123Z,8.30
2019-03-15T20:19:48.067Z,8.30
2019-03-15T20:22:21.289Z,8.20
2019-03-15T20:24:54.441Z,8.20
2019-03-15T20:27:27.543Z,8.20
2019-03-15T20:30:00.438Z,8.10
2019-03-15T20:32:33.273Z,8.10
2019-03-15T20:35:06.249Z,8.00
2019-03-15T20:37:39.464Z,8.00
2019-03-15T20:40:12.522Z,8.00
2019-03-15T20:42:45.621Z,8.00
2019-03-15T20:45:18.820Z,8.00
2019-03-15T20:47:51.889Z,8.00
2019-03-15T20:50:25.879Z,7.90
2019-03-15T20:53:08.700Z,7.90
2019-03-15T20:55:34.379Z,8.00
2019-03-15T20:58:07.570Z,8.00
2019-03-15T21:00:40.994Z,7.90
2019-03-15T21:03:13.932Z,7.90
2019-03-15T21:05:46.992Z,7.90
2019-03-15T21:08:20.033Z,7.90
2019-03-15T21:10:52.899Z,7.90
2019-03-15T21:13:25.984Z,7.90
2019-03-15T21:15:58.827Z,7.90
2019-03-15T21:18:31.724Z,8.00
2019-03-15T21:21:04.707Z,7.90
2019-03-15T21:23:37.749Z,7.90
2019-03-15T21:26:10.623Z,7.90
2019-03-15T21:28:43.448Z,7.90
2019-03-15T21:31:16.707Z,7.90
2019-03-15T21:33:49.572Z,7.90
2019-03-15T21:36:22.413Z,7.90
2019-03-15T21:38:55.862Z,7.90
2019-03-15T21:41:29.004Z,7.80
2019-03-15T21:44:02.035Z,7.80
2019-03-15T21:46:34.893Z,7.90
2019-03-15T21:49:07.924Z,7.80
2019-03-15T21:51:40.854Z,7.80
2019-03-15T21:54:14.144Z,7.80
2019-03-15T21:56:47.139Z,7.80
2019-03-15T21:59:19.969Z,7.70
2019-03-15T22:01:52.835Z,7.70
2019-03-15T22:04:25.832Z,7.70
2019-03-15T22:06:58.898Z,7.70
2019-03-15T22:09:32.022Z,7.60
2019-03-15T22:12:04.835Z,7.70
2019-03-15T22:14:37.664Z,7.60
2019-03-15T22:17:10.757Z,7.60
2019-03-15T22:19:43.574Z,7.60
2019-03-15T22:22:16.482Z,7.60
2019-03-15T22:24:49.539Z,7.60
2019-03-15T22:27:22.696Z,7.60
2019-03-15T22:29:55.770Z,7.60
2019-03-15T22:32:28.789Z,7.60
2019-03-15T22:35:01.580Z,7.60
2019-03-15T22:37:35.350Z,7.70
2019-03-15T22:40:08.782Z,7.60
2019-03-15T22:42:41.583Z,7.70
2019-03-15T22:45:14.759Z,7.70
2019-03-15T22:47:47.713Z,7.70
2019-03-15T22:50:20.494Z,7.70
2019-03-15T22:52:53.299Z,7.60
2019-03-15T22:55:46.414Z,7.70
2019-03-15T22:58:19.359Z,7.70
2019-03-15T23:00:52.267Z,7.60
2019-03-15T23:03:25.220Z,7.70
2019-03-15T23:05:58.123Z,7.70
2019-03-15T23:08:31.083Z,7.70
2019-03-15T23:11:04.000Z,7.70
2019-03-15T23:13:36.735Z,7.70
2019-03-15T23:16:09.993Z,7.70
2019-03-15T23:18:42.744Z,7.70
2019-03-15T23:21:15.674Z,7.70
2019-03-15T23:23:48.465Z,7.80
2019-03-15T23:26:21.854Z,7.80
2019-03-15T23:28:55.081Z,7.80
2019-03-15T23:31:28.054Z,7.90
2019-03-15T23:34:00.964Z,7.80
2019-03-15T23:36:33.978Z,7.90
2019-03-15T23:39:07.230Z,7.90
2019-03-15T23:41:40.014Z,7.90
2019-03-15T23:44:14.734Z,7.90
2019-03-15T23:46:47.815Z,7.90
2019-03-15T23:49:20.615Z,7.90
2019-03-15T23:51:53.421Z,7.90
2019-03-15T23:54:26.565Z,8.00
2019-03-15T23:56:59.571Z,7.90
2019-03-15T23:59:32.605Z,7.90
